createdAt,value
2022-08-11T00:01:17.662Z,100705.13
2022-08-11T00:03:49.359Z,100702.59
2022-08-11T00:06:26.122Z,100704.69
2022-08-11T00:08:56.422Z,100698.81
2022-08-11T00:11:35.283Z,100696.38
2022-08-11T00:14:05.455Z,100695.28
2022-08-11T00:16:35.621Z,100691.94
2022-08-11T00:19:04.540Z,100694.22
2022-08-11T00:22:02.114Z,100694.31
2022-08-11T00:24:50.977Z,100687.53
2022-08-11T00:27:34.597Z,100691.34
2022-08-11T00:30:03.593Z,100703.94
2022-08-11T00:32:33.987Z,100694.09
2022-08-11T00:35:51.909Z,100696.81
2022-08-11T00:37:57.146Z,100699.59
2022-08-11T00:40:38.265Z,100696.16
2022-08-11T00:43:22.881Z,100697.28
2022-08-11T00:46:13.787Z,100702.69
2022-08-11T00:48:58.332Z,100698.31
2022-08-11T00:52:04.787Z,100694.19
2022-08-11T00:55:24.808Z,100696.56
2022-08-11T00:58:26.637Z,100688.84
2022-08-11T01:01:11.911Z,100692.59
2022-08-11T01:04:32.380Z,100691.69
2022-08-11T01:08:05.249Z,100700.56
2022-08-11T01:11:30.604Z,100692.88
2022-08-11T01:14:40.740Z,100697.63
2022-08-11T01:18:10.240Z,100702.91
2022-08-11T01:21:26.615Z,100712.91
2022-08-11T01:25:01.063Z,100711.50
2022-08-11T01:28:41.670Z,100714.13
2022-08-11T01:31:58.627Z,100715.38
2022-08-11T01:35:22.143Z,100714.81
2022-08-11T01:38:39.045Z,100711.09
2022-08-11T01:41:58.609Z,100709.31
2022-08-11T01:45:09.045Z,100712.09
2022-08-11T01:47:54.120Z,100714.25
2022-08-11T01:50:47.602Z,100708.28
2022-08-11T01:53:29.950Z,100709.28
2022-08-11T01:56:34.311Z,100713.25
2022-08-11T01:59:15.571Z,100707.19
2022-08-11T02:02:16.666Z,100713.41
2022-08-11T02:04:58.676Z,100711.97
2022-08-11T02:07:37.681Z,100710.38
2022-08-11T02:10:40.676Z,100711.56
2022-08-11T02:13:19.367Z,100711.72
2022-08-11T02:16:14.820Z,100717.25
2022-08-11T02:19:07.084Z,100720.78
2022-08-11T02:22:04.935Z,100717.00
2022-08-11T02:24:46.593Z,100721.38
2022-08-11T02:27:23.054Z,100719.06
2022-08-11T02:30:07.505Z,100717.94
2022-08-11T02:33:00.663Z,100714.50
2022-08-11T02:35:32.916Z,100714.66
2022-08-11T02:38:19.080Z,100710.78
2022-08-11T02:40:58.449Z,100716.78
2022-08-11T02:43:48.709Z,100708.00
2022-08-11T02:46:28.066Z,100716.00
2022-08-11T02:49:24.418Z,100714.16
2022-08-11T02:52:06.740Z,100715.88
2022-08-11T02:54:44.843Z,100717.06
2022-08-11T02:57:23.794Z,100713.78
2022-08-11T02:59:58.963Z,100710.38
2022-08-11T03:02:56.650Z,100706.09
2022-08-11T03:05:55.282Z,100710.50
2022-08-11T03:08:49.086Z,100717.63
2022-08-11T03:11:50.611Z,100706.13
2022-08-11T03:14:52.862Z,100706.66
2022-08-11T03:17:33.617Z,100702.69
2022-08-11T03:20:17.709Z,100701.16
2022-08-11T03:22:57.763Z,100697.53
2022-08-11T03:25:34.822Z,100700.25
2022-08-11T03:28:17.561Z,100701.41
2022-08-11T03:30:57.798Z,100699.69
2022-08-11T03:33:49.698Z,100704.81
2022-08-11T03:37:16.005Z,100707.69
2022-08-11T03:39:57.239Z,100715.50
2022-08-11T03:42:34.118Z,100710.53
2022-08-11T03:45:23.947Z,100704.41
2022-08-11T03:48:16.051Z,100707.25
2022-08-11T03:50:57.065Z,100704.09
2022-08-11T03:53:50.735Z,100705.22
2022-08-11T03:57:03.664Z,100703.53
2022-08-11T04:00:09.081Z,100721.44
2022-08-11T04:03:37.680Z,100713.44
2022-08-11T04:06:51.420Z,100711.88
2022-08-11T04:10:10.950Z,100713.66
2022-08-11T04:13:29.911Z,100715.38
2022-08-11T04:16:24.744Z,100718.09
2022-08-11T04:19:56.719Z,100717.94
2022-08-11T04:22:54.319Z,100728.22
2022-08-11T04:26:11.663Z,100720.00
2022-08-11T04:29:09.490Z,100714.94
2022-08-11T04:31:52.084Z,100714.09
2022-08-11T04:35:00.019Z,100717.22
2022-08-11T04:38:10.419Z,100715.88
2022-08-11T04:40:58.463Z,100723.13
2022-08-11T04:44:17.065Z,100715.50
2022-08-11T04:47:12.248Z,100722.91
2022-08-11T04:50:17.525Z,100712.50
2022-08-11T04:53:32.402Z,100718.56
2022-08-11T04:56:28.016Z,100716.91
2022-08-11T04:59:43.996Z,100713.53
2022-08-11T05:03:03.160Z,100715.22
2022-08-11T05:05:56.782Z,100723.38
2022-08-11T05:09:21.898Z,100720.34
2022-08-11T05:12:20.170Z,100722.91
2022-08-11T05:15:10.283Z,100724.84
2022-08-11T05:18:12.559Z,100724.22
2022-08-11T05:21:07.132Z,100726.16
2022-08-11T05:23:59.492Z,100727.25
2022-08-11T05:26:56.361Z,100737.78
2022-08-11T05:30:00.901Z,100733.72
2022-08-11T05:32:59.386Z,100738.75
2022-08-11T05:36:00.100Z,100743.13
2022-08-11T05:38:45.780Z,100741.16
2022-08-11T05:41:32.790Z,100738.84
2022-08-11T05:44:22.744Z,100742.34
2022-08-11T05:47:09.235Z,100744.59
2022-08-11T05:49:56.750Z,100755.19
2022-08-11T05:52:55.352Z,100748.84
2022-08-11T05:56:01.774Z,100747.94
2022-08-11T05:58:41.762Z,100752.59
2022-08-11T06:01:14.842Z,100757.75
2022-08-11T06:04:04.080Z,100754.72
2022-08-11T06:06:33.138Z,100757.41
2022-08-11T06:09:03.327Z,100757.75
2022-08-11T06:11:43.249Z,100759.44
2022-08-11T06:14:14.047Z,100753.19
2022-08-11T06:16:45.165Z,100754.34
2022-08-11T06:19:14.301Z,100751.88
2022-08-11T06:21:47.968Z,100762.25
2022-08-11T06:24:17.605Z,100760.16
2022-08-11T06:27:11.707Z,100760.50
2022-08-11T06:29:54.740Z,100760.34
2022-08-11T06:32:29.747Z,100751.81
2022-08-11T06:35:11.520Z,100757.09
2022-08-11T06:37:49.868Z,100759.53
2022-08-11T06:40:40.021Z,100754.03
2022-08-11T06:43:19.910Z,100758.91
2022-08-11T06:46:03.298Z,100757.56
2022-08-11T06:48:34.928Z,100757.84
2022-08-11T06:51:12.789Z,100759.88
2022-08-11T06:53:57.608Z,100757.22
2022-08-11T06:57:12.554Z,100750.91
2022-08-11T07:00:02.276Z,100753.56
2022-08-11T07:02:35.407Z,100751.41
2022-08-11T07:05:14.400Z,100754.72
2022-08-11T07:08:44.651Z,100752.59
2022-08-11T07:12:03.314Z,100753.25
2022-08-11T07:14:50.630Z,100758.88
2022-08-11T07:17:23.584Z,100755.81
2022-08-11T07:20:13.341Z,100761.69
2022-08-11T07:23:00.171Z,100755.41
2022-08-11T07:25:48.146Z,100751.59
2022-08-11T07:28:41.584Z,100762.03
2022-08-11T07:31:14.213Z,100763.72
2022-08-11T07:34:07.921Z,100754.00
2022-08-11T07:36:41.115Z,100748.47
2022-08-11T07:39:22.010Z,100754.44
2022-08-11T07:41:52.830Z,100748.28
2022-08-11T07:44:22.500Z,100742.50
2022-08-11T07:47:09.414Z,100746.84
2022-08-11T07:49:58.051Z,100750.81
2022-08-11T07:52:33.837Z,100751.28
2022-08-11T07:55:08.625Z,100742.97
2022-08-11T07:58:14.131Z,100743.81
2022-08-11T08:01:10.648Z,100751.72
2022-08-11T08:04:08.182Z,100754.03
2022-08-11T08:06:55.492Z,100746.22
2022-08-11T08:09:42.941Z,100746.22
2022-08-11T08:12:31.636Z,100747.50
2022-08-11T08:15:17.886Z,100743.88
2022-08-11T08:18:20.449Z,100744.81
2022-08-11T08:20:47.047Z,100749.34
2022-08-11T08:23:15.983Z,100751.25
2022-08-11T08:25:46.479Z,100747.94
2022-08-11T08:28:18.970Z,100748.91
2022-08-11T08:30:50.882Z,100746.03
2022-08-11T08:33:23.133Z,100744.59
2022-08-11T08:36:11.788Z,100742.41
2022-08-11T08:38:42.582Z,100748.25
2022-08-11T08:41:16.303Z,100748.66
2022-08-11T08:43:53.471Z,100749.94
2022-08-11T08:46:27.420Z,100749.19
2022-08-11T08:48:56.452Z,100755.63
2022-08-11T08:52:02.440Z,100755.97
2022-08-11T08:54:35.550Z,100750.75
2022-08-11T08:57:06.115Z,100743.66
2022-08-11T08:59:48.523Z,100740.72
2022-08-11T09:02:33.646Z,100741.34
2022-08-11T09:05:04.905Z,100737.59
2022-08-11T09:07:38.912Z,100734.47
2022-08-11T09:10:11.447Z,100731.59
2022-08-11T09:12:42.704Z,100729.44
2022-08-11T09:15:15.195Z,100727.69
2022-08-11T09:17:50.314Z,100724.81
2022-08-11T09:20:21.994Z,100720.53
2022-08-11T09:26:18.953Z,100707.97
2022-08-11T09:28:50.127Z,100718.13
2022-08-11T09:31:22.762Z,100705.53
2022-08-11T09:33:55.601Z,100715.03
2022-08-11T09:36:42.329Z,100712.75
2022-08-11T09:39:31.118Z,100715.31
2022-08-11T09:42:03.303Z,100712.75
2022-08-11T09:44:49.367Z,100706.78
2022-08-11T09:47:24.417Z,100704.59
2022-08-11T09:49:59.908Z,100708.31
2022-08-11T09:52:30.947Z,100698.09
2022-08-11T09:55:00.145Z,100698.56
2022-08-11T09:57:55.178Z,100700.63
2022-08-11T10:00:30.927Z,100688.56
2022-08-11T10:03:02.715Z,100695.78
2022-08-11T10:05:49.579Z,100703.44
2022-08-11T10:08:20.577Z,100699.19
2022-08-11T10:10:51.338Z,100710.75
2022-08-11T10:14:08.070Z,100688.09
2022-08-11T10:16:15.860Z,100686.81
2022-08-11T10:18:53.351Z,100687.97
2022-08-11T10:21:31.807Z,100666.16
2022-08-11T10:24:19.905Z,100682.97
2022-08-11T10:27:00.286Z,100690.22
2022-08-11T10:29:51.929Z,100682.97
2022-08-11T10:32:57.533Z,100668.03
2022-08-11T10:35:31.786Z,100669.81
2022-08-11T10:38:08.983Z,100665.31
2022-08-11T10:40:41.763Z,100668.19
2022-08-11T10:43:14.339Z,100665.88
2022-08-11T10:46:05.175Z,100656.53
2022-08-11T10:48:38.932Z,100654.34
2022-08-11T10:51:15.601Z,100659.41
2022-08-11T10:54:21.851Z,100657.56
2022-08-11T10:57:07.861Z,100654.88
2022-08-11T10:59:36.735Z,100631.56
2022-08-11T11:02:06.327Z,100634.00
2022-08-11T11:04:59.160Z,100623.50
2022-08-11T11:07:44.472Z,100622.94
2022-08-11T11:10:13.227Z,100626.00
2022-08-11T11:13:18.160Z,100623.34
2022-08-11T11:16:06.738Z,100621.97
2022-08-11T11:18:38.046Z,100627.13
2022-08-11T11:21:09.163Z,100628.63
2022-08-11T11:23:47.540Z,100621.25
2022-08-11T11:26:42.174Z,100607.88
2022-08-11T11:29:34.556Z,100613.78
2022-08-11T11:32:25.943Z,100614.53
2022-08-11T11:35:12.705Z,100614.41
2022-08-11T11:38:03.661Z,100606.25
2022-08-11T11:40:35.153Z,100594.66
2022-08-11T11:43:05.246Z,100593.72
2022-08-11T11:45:33.916Z,100591.00
2022-08-11T11:48:03.341Z,100585.97
2022-08-11T11:50:35.820Z,100581.84
2022-08-11T11:53:08.691Z,100580.97
2022-08-11T11:55:39.217Z,100572.88
2022-08-11T11:58:25.812Z,100565.19
2022-08-11T12:01:12.861Z,100571.03
2022-08-11T12:03:42.479Z,100569.97
2022-08-11T12:06:14.778Z,100571.16
2022-08-11T12:08:45.110Z,100571.13
2022-08-11T12:11:30.559Z,100559.84
2022-08-11T12:14:03.079Z,100551.91
2022-08-11T12:16:36.599Z,100551.31
2022-08-11T12:19:10.423Z,100542.88
2022-08-11T12:22:00.971Z,100551.38
2022-08-11T12:24:48.401Z,100544.16
2022-08-11T12:27:24.873Z,100542.56
2022-08-11T12:29:57.947Z,100532.94
2022-08-11T12:32:30.390Z,100529.59
2022-08-11T12:34:59.342Z,100534.50
2022-08-11T12:37:33.137Z,100529.22
2022-08-11T12:40:49.396Z,100529.81
2022-08-11T12:43:37.269Z,100517.00
2022-08-11T12:46:11.253Z,100511.09
2022-08-11T12:49:04.613Z,100516.94
2022-08-11T12:52:12.483Z,100511.03
2022-08-11T12:54:51.783Z,100506.53
2022-08-11T12:57:45.223Z,100512.81
2022-08-11T13:00:34.838Z,100500.88
2022-08-11T13:03:22.385Z,100504.06
2022-08-11T13:05:55.662Z,100501.31
2022-08-11T13:08:25.923Z,100496.78
2022-08-11T13:11:15.191Z,100495.06
2022-08-11T13:13:55.085Z,100499.59
2022-08-11T13:16:31.085Z,100495.16
2022-08-11T13:19:01.868Z,100493.91
2022-08-11T13:21:33.753Z,100488.03
2022-08-11T13:24:03.742Z,100492.34
2022-08-11T13:26:48.388Z,100491.72
2022-08-11T13:29:20.783Z,100488.91
2022-08-11T13:31:52.001Z,100478.38
2022-08-11T13:34:21.977Z,100477.88
2022-08-11T13:36:53.527Z,100467.38
2022-08-11T13:39:24.412Z,100463.78
2022-08-11T13:41:55.252Z,100464.25
2022-08-11T13:44:27.152Z,100461.00
2022-08-11T13:47:01.392Z,100460.91
2022-08-11T13:49:31.329Z,100455.59
2022-08-11T13:52:00.699Z,100455.66
2022-08-11T13:54:32.599Z,100451.41
2022-08-11T13:57:08.144Z,100440.69
2022-08-11T13:59:51.822Z,100437.38
2022-08-11T14:02:30.679Z,100439.81
2022-08-11T14:05:05.194Z,100438.41
2022-08-11T14:07:40.492Z,100430.94
2022-08-11T14:10:13.500Z,100432.28
2022-08-11T14:13:02.398Z,100429.44
2022-08-11T14:15:34.780Z,100421.59
2022-08-11T14:18:08.428Z,100429.06
2022-08-11T14:21:00.160Z,100429.78
2022-08-11T14:23:33.087Z,100427.78
2022-08-11T14:26:19.728Z,100426.22
2022-08-11T14:28:50.007Z,100423.09
2022-08-11T14:31:19.254Z,100418.47
2022-08-11T14:34:00.140Z,100412.16
2022-08-11T14:36:36.602Z,100414.44
2022-08-11T14:39:13.215Z,100401.31
2022-08-11T14:42:08.499Z,100400.38
2022-08-11T14:45:01.953Z,100413.13
2022-08-11T14:47:34.080Z,100402.25
2022-08-11T14:50:12.508Z,100388.94
2022-08-11T14:52:55.101Z,100384.91
2022-08-11T14:55:46.923Z,100388.72
2022-08-11T14:58:19.626Z,100387.56
2022-08-11T15:00:50.808Z,100385.16
2022-08-11T15:03:19.026Z,100387.28
2022-08-11T15:05:57.481Z,100384.06
2022-08-11T15:08:50.134Z,100380.13
2022-08-11T15:11:39.410Z,100374.75
2022-08-11T15:14:10.549Z,100366.19
2022-08-11T15:17:00.261Z,100369.28
2022-08-11T15:19:40.158Z,100369.53
2022-08-11T15:22:29.166Z,100360.34
2022-08-11T15:25:00.083Z,100355.72
2022-08-11T15:27:51.916Z,100349.84
2022-08-11T15:30:38.972Z,100350.50
2022-08-11T15:33:27.946Z,100343.63
2022-08-11T15:36:15.820Z,100336.03
2022-08-11T15:38:55.165Z,100340.00
2022-08-11T15:41:54.321Z,100340.56
2022-08-11T15:45:03.581Z,100344.50
2022-08-11T15:47:41.556Z,100334.63
2022-08-11T15:50:16.340Z,100341.38
2022-08-11T15:52:54.187Z,100337.44
2022-08-11T15:55:25.510Z,100335.88
2022-08-11T15:58:13.981Z,100333.78
2022-08-11T16:01:04.329Z,100328.72
2022-08-11T16:04:08.994Z,100320.56
2022-08-11T16:06:49.627Z,100327.13
2022-08-11T16:09:31.005Z,100315.19
2022-08-11T16:12:18.192Z,100316.25
2022-08-11T16:15:09.155Z,100311.78
2022-08-11T16:17:44.387Z,100312.63
2022-08-11T16:20:15.855Z,100313.72
2022-08-11T16:23:00.393Z,100313.22
2022-08-11T16:27:03.665Z,100308.09
2022-08-11T16:28:26.765Z,100304.72
2022-08-11T16:30:56.217Z,100311.91
2022-08-11T16:33:49.881Z,100306.28
2022-08-11T16:36:33.602Z,100302.59
2022-08-11T16:39:05.114Z,100293.56
2022-08-11T16:41:54.474Z,100293.72
2022-08-11T16:44:43.203Z,100288.97
2022-08-11T16:47:16.256Z,100285.69
2022-08-11T16:49:52.755Z,100288.09
2022-08-11T16:52:23.096Z,100292.03
2022-08-11T16:54:52.897Z,100284.06
2022-08-11T16:57:42.761Z,100289.22
2022-08-11T17:00:17.555Z,100292.34
2022-08-11T17:03:08.075Z,100288.38
2022-08-11T17:06:00.347Z,100283.91
2022-08-11T17:08:56.739Z,100281.91
2022-08-11T17:11:46.316Z,100280.78
2022-08-11T17:14:36.961Z,100276.25
2022-08-11T17:17:13.773Z,100289.25
2022-08-11T17:20:39.982Z,100280.06
2022-08-11T17:22:57.894Z,100273.31
2022-08-11T17:25:29.404Z,100283.31
2022-08-11T17:28:01.305Z,100275.44
2022-08-11T17:30:45.849Z,100272.03
2022-08-11T17:33:45.305Z,100264.44
2022-08-11T17:36:15.563Z,100266.69
2022-08-11T17:38:46.131Z,100267.94
2022-08-11T17:41:33.507Z,100263.59
2022-08-11T17:44:20.429Z,100272.03
2022-08-11T17:47:07.232Z,100275.66
2022-08-11T17:49:40.571Z,100277.66
2022-08-11T17:52:30.673Z,100284.69
2022-08-11T17:55:51.698Z,100276.56
2022-08-11T17:58:26.495Z,100283.22
2022-08-11T18:00:56.075Z,100283.53
2022-08-11T18:03:33.143Z,100280.81
2022-08-11T18:06:06.182Z,100289.41
2022-08-11T18:08:53.357Z,100286.03
2022-08-11T18:12:11.037Z,100291.59
2022-08-11T18:14:51.664Z,100296.19
2022-08-11T18:17:37.960Z,100304.00
2022-08-11T18:20:26.126Z,100305.06
2022-08-11T18:23:15.727Z,100305.06
2022-08-11T18:26:07.024Z,100304.06
2022-08-11T18:29:03.030Z,100301.00
2022-08-11T18:31:54.470Z,100305.69
2022-08-11T18:34:49.285Z,100308.81
2022-08-11T18:37:40.290Z,100306.53
2022-08-11T18:40:34.911Z,100311.31
2022-08-11T18:43:27.339Z,100304.78
2022-08-11T18:46:21.678Z,100311.09
2022-08-11T18:49:15.847Z,100305.78
2022-08-11T18:52:07.460Z,100309.91
2022-08-11T18:54:57.388Z,100306.50
2022-08-11T18:57:49.555Z,100310.63
2022-08-11T19:00:42.037Z,100311.00
2022-08-11T19:03:30.024Z,100307.91
2022-08-11T19:06:38.082Z,100322.78
2022-08-11T19:09:31.604Z,100322.06
2022-08-11T19:12:19.423Z,100325.00
2022-08-11T19:15:09.455Z,100323.78
2022-08-11T19:18:00.640Z,100329.63
2022-08-11T19:20:50.628Z,100328.41
2022-08-11T19:23:48.199Z,100329.53
2022-08-11T19:26:35.190Z,100329.44
2022-08-11T19:30:06.981Z,100337.78
2022-08-11T19:32:32.428Z,100344.41
2022-08-11T19:35:21.567Z,100346.63
2022-08-11T19:38:09.465Z,100349.06
2022-08-11T19:40:57.706Z,100346.63
2022-08-11T19:43:45.368Z,100352.44
2022-08-11T19:46:32.500Z,100353.66
2022-08-11T19:49:21.740Z,100352.66
2022-08-11T19:52:09.205Z,100353.16
2022-08-11T19:54:57.129Z,100357.88
2022-08-11T19:57:44.240Z,100358.13
2022-08-11T20:00:34.476Z,100358.47
2022-08-11T20:03:25.392Z,100367.97
2022-08-11T20:06:16.158Z,100359.72
2022-08-11T20:09:04.608Z,100364.44
2022-08-11T20:11:56.160Z,100367.44
2022-08-11T20:14:46.562Z,100365.41
2022-08-11T20:17:33.194Z,100368.06
2022-08-11T20:20:24.796Z,100372.88
2022-08-11T20:23:14.329Z,100366.31
2022-08-11T20:26:14.054Z,100370.41
2022-08-11T20:29:09.266Z,100373.53
2022-08-11T20:31:56.246Z,100376.66
2022-08-11T20:34:43.429Z,100380.50
2022-08-11T20:37:31.044Z,100383.56
2022-08-11T20:40:23.640Z,100381.16
2022-08-11T20:44:04.822Z,100385.84
2022-08-11T20:46:17.552Z,100390.53
2022-08-11T20:49:05.161Z,100389.28
2022-08-11T20:51:51.605Z,100388.78
2022-08-11T20:54:43.673Z,100383.13
2022-08-11T20:57:35.650Z,100391.88
2022-08-11T21:00:40.014Z,100387.00
2022-08-11T21:03:35.315Z,100385.50
2022-08-11T21:06:31.258Z,100381.91
2022-08-11T21:09:25.070Z,100388.09
2022-08-11T21:15:39.165Z,100396.16
2022-08-11T21:18:29.447Z,100388.09
2022-08-11T21:21:18.545Z,100386.84
2022-08-11T21:24:07.139Z,100397.25
2022-08-11T21:27:01.562Z,100395.44
2022-08-11T21:29:54.373Z,100399.50
2022-08-11T21:32:42.745Z,100403.31
2022-08-11T21:35:29.745Z,100413.44
2022-08-11T21:38:17.127Z,100407.66
2022-08-11T21:41:05.999Z,100415.75
2022-08-11T21:43:52.891Z,100407.47
2022-08-11T21:46:41.580Z,100418.09
2022-08-11T21:49:30.146Z,100416.81
2022-08-11T21:52:16.228Z,100415.41
2022-08-11T21:55:02.624Z,100412.97
2022-08-11T21:57:49.903Z,100421.66
2022-08-11T22:00:36.698Z,100423.59
2022-08-11T22:03:24.250Z,100424.66
2022-08-11T22:06:12.878Z,100430.88
2022-08-11T22:09:00.797Z,100427.78
2022-08-11T22:11:47.716Z,100423.66
2022-08-11T22:14:33.492Z,100424.59
2022-08-11T22:17:19.582Z,100424.59
2022-08-11T22:20:07.286Z,100418.56
2022-08-11T22:22:54.687Z,100425.97
2022-08-11T22:25:51.565Z,100427.78
2022-08-11T22:28:40.195Z,100414.88
2022-08-11T22:31:29.531Z,100418.63
2022-08-11T22:34:15.361Z,100413.50
2022-08-11T22:37:05.095Z,100415.63
2022-08-11T22:40:01.837Z,100419.81
2022-08-11T22:42:49.630Z,100423.44
2022-08-11T22:45:35.948Z,100420.44
2022-08-11T22:48:24.882Z,100427.00
2022-08-11T22:51:12.672Z,100422.94
2022-08-11T22:54:00.485Z,100421.13
2022-08-11T22:56:49.216Z,100419.53
2022-08-11T22:59:37.573Z,100423.13
2022-08-11T23:02:26.086Z,100427.72
2022-08-11T23:05:12.662Z,100426.50
2022-08-11T23:07:59.133Z,100429.00
2022-08-11T23:10:47.363Z,100430.13
2022-08-11T23:13:34.483Z,100423.31
2022-08-11T23:16:20.805Z,100430.13
2022-08-11T23:19:08.074Z,100427.72
2022-08-11T23:21:56.523Z,100422.75
2022-08-11T23:24:44.632Z,100428.25
2022-08-11T23:27:33.671Z,100426.72
2022-08-11T23:30:20.604Z,100423.50
2022-08-11T23:33:11.300Z,100420.13
2022-08-11T23:36:05.336Z,100418.97
2022-08-11T23:38:51.729Z,100418.31
2022-08-11T23:41:38.269Z,100415.28
2022-08-11T23:44:26.869Z,100411.44
2022-08-11T23:47:15.839Z,100411.81
2022-08-11T23:50:03.387Z,100408.81
2022-08-11T23:52:52.071Z,100408.16
2022-08-11T23:55:38.644Z,100398.78
2022-08-11T23:58:25.451Z,100404.47
